Time;durP1;ratioP1;P1;durP2;ratioP2;P2;SDS_P1;SDS_P2;PMS_P1;PMS_P2;Temp;Humidity;BMP_temperature;BMP_pressure;BME280_temperature;BME280_humidity;BME280_pressure;Samples;Min_cycle;Max_cycle;Signal;HPM_P1;HPM_P2
2023/09/22 00:00:14;;;;;;;1999.90;999.90;;;14.70;99.90;;;;;;5052513;28;20100;-74
2023/09/22 00:02:42;;;;;;;1999.90;999.90;;;14.60;99.90;;;;;;5052617;28;20032;-74
2023/09/22 00:05:10;;;;;;;1999.90;999.90;;;14.50;99.90;;;;;;5051928;28;20021;-70
2023/09/22 00:07:37;;;;;;;1999.90;999.90;;;14.40;99.90;;;;;;5052650;28;20079;-70
2023/09/22 00:10:04;;;;;;;1999.90;999.90;;;14.40;99.90;;;;;;5052574;28;20112;-74
2023/09/22 00:12:31;;;;;;;1999.90;999.90;;;14.30;99.90;;;;;;5052490;28;20460;-70
2023/09/22 00:14:57;;;;;;;1999.90;999.90;;;14.30;99.90;;;;;;5052643;28;20036;-70
2023/09/22 00:17:24;;;;;;;1999.90;999.90;;;14.30;99.90;;;;;;5052562;28;20025;-71
2023/09/22 00:19:50;;;;;;;1999.90;999.90;;;14.30;99.90;;;;;;5044163;28;20037;-75
2023/09/22 00:22:15;;;;;;;1999.90;999.90;;;14.60;99.90;;;;;;5036049;28;20023;-71
2023/09/22 00:24:41;;;;;;;1999.90;999.90;;;15.00;99.90;;;;;;5035610;28;20041;-75
2023/09/22 00:27:07;;;;;;;1999.90;999.90;;;15.40;99.90;;;;;;5052415;28;20488;-75
2023/09/22 00:29:32;;;;;;;1999.90;999.90;;;15.60;99.90;;;;;;5052146;28;20440;-71
2023/09/22 00:31:58;;;;;;;1999.90;999.90;;;15.80;99.90;;;;;;5052468;28;20025;-72
2023/09/22 00:34:23;;;;;;;1999.90;999.90;;;15.90;99.90;;;;;;5052206;28;20064;-76
2023/09/22 00:36:52;;;;;;;1999.90;999.90;;;16.00;99.90;;;;;;5052159;28;20091;-75
2023/09/22 00:39:18;;;;;;;1999.90;999.90;;;16.10;99.90;;;;;;5052556;28;20476;-76
2023/09/22 00:41:43;;;;;;;1999.90;999.90;;;16.20;99.90;;;;;;5052199;28;20036;-76
2023/09/22 00:44:09;;;;;;;1999.90;999.90;;;16.30;99.90;;;;;;5052407;28;20092;-74
2023/09/22 00:46:36;;;;;;;1999.90;999.90;;;16.30;99.90;;;;;;5051960;28;20035;-73
2023/09/22 00:49:02;;;;;;;1999.90;999.90;;;16.20;99.90;;;;;;5051984;28;20036;-76
2023/09/22 00:51:28;;;;;;;1999.90;999.90;;;16.10;99.90;;;;;;5051996;28;20025;-76
2023/09/22 00:53:54;;;;;;;1999.90;999.90;;;15.80;99.90;;;;;;5050020;28;20033;-73
2023/09/22 00:56:22;;;;;;;1999.90;999.90;;;15.70;99.90;;;;;;5052153;28;20442;-73
2023/09/22 00:58:49;;;;;;;1999.90;999.90;;;15.50;99.90;;;;;;5054581;28;20035;-71
2023/09/22 01:01:15;;;;;;;1999.90;999.90;;;15.20;99.90;;;;;;5054389;28;20610;-74
2023/09/22 01:03:41;;;;;;;1999.90;999.90;;;15.10;99.90;;;;;;5055749;28;20033;-74
2023/09/22 01:06:10;;;;;;;1999.90;999.90;;;15.00;99.90;;;;;;5055416;28;20028;-75
2023/09/22 01:08:36;;;;;;;1999.90;999.90;;;14.90;99.90;;;;;;5055418;28;20480;-74
2023/09/22 01:11:01;;;;;;;1999.90;999.90;;;15.00;99.90;;;;;;5055463;28;20025;-70
2023/09/22 01:13:27;;;;;;;1999.90;999.90;;;15.00;99.90;;;;;;5055284;28;20055;-70
2023/09/22 01:15:54;;;;;;;1999.90;999.90;;;14.90;99.90;;;;;;5055485;28;20017;-71
2023/09/22 01:18:20;;;;;;;1999.90;999.90;;;14.80;99.90;;;;;;5052927;28;20392;-74
2023/09/22 01:20:46;;;;;;;1999.90;999.90;;;14.60;99.90;;;;;;5046163;28;20017;-74
2023/09/22 01:23:13;;;;;;;1999.90;999.90;;;14.50;99.90;;;;;;5035251;28;20028;-70
2023/09/22 01:25:42;;;;;;;1999.90;999.90;;;14.50;99.90;;;;;;5035080;28;20057;-71
2023/09/22 01:28:12;;;;;;;1999.90;999.90;;;14.60;99.90;;;;;;5035394;28;20025;-74
2023/09/22 01:30:39;;;;;;;1999.90;999.90;;;14.60;99.90;;;;;;5035394;28;20492;-71
2023/09/22 01:33:06;;;;;;;1999.90;999.90;;;14.60;99.90;;;;;;5035229;28;20013;-74
2023/09/22 01:35:32;;;;;;;1999.90;999.90;;;14.60;99.90;;;;;;5043024;28;20404;-74
2023/09/22 01:38:33;;;;;;;1999.90;999.90;;;14.60;99.90;;;;;;5054752;28;20096;-70
2023/09/22 01:40:59;;;;;;;1999.90;999.90;;;14.60;99.90;;;;;;5013233;28;20030;-74
2023/09/22 01:43:25;;;;;;;1999.90;999.90;;;14.70;99.90;;;;;;4996593;28;20111;-75
2023/09/22 01:45:51;;;;;;;1999.90;999.90;;;14.80;99.90;;;;;;5013355;28;20036;-71
2023/09/22 01:48:16;;;;;;;1999.90;999.90;;;15.00;99.90;;;;;;5012992;28;20500;-72
2023/09/22 01:50:42;;;;;;;1999.90;999.90;;;15.30;99.90;;;;;;5012652;28;20117;-72
2023/09/22 01:53:11;;;;;;;1999.90;999.90;;;15.50;99.90;;;;;;5012906;28;20069;-75
2023/09/22 01:55:40;;;;;;;1999.90;999.90;;;15.70;99.90;;;;;;4996397;28;20158;-76
2023/09/22 01:58:07;;;;;;;1999.90;999.90;;;15.70;99.90;;;;;;5012957;28;20033;-73
2023/09/22 02:00:33;;;;;;;1999.90;999.90;;;15.80;99.90;;;;;;4996244;28;20026;-76
2023/09/22 02:03:00;;;;;;;1999.90;999.90;;;15.90;99.90;;;;;;4996619;28;20030;-73
2023/09/22 02:05:26;;;;;;;1999.90;999.90;;;16.00;99.90;;;;;;5012505;28;20559;-72
2023/09/22 02:07:51;;;;;;;1999.90;999.90;;;16.00;99.90;;;;;;5012589;28;20038;-76
2023/09/22 02:10:18;;;;;;;1999.90;999.90;;;16.10;99.90;;;;;;4994893;28;20034;-77
2023/09/22 02:12:44;;;;;;;1999.90;999.90;;;16.30;99.90;;;;;;5012205;28;20066;-76
2023/09/22 02:15:10;;;;;;;1999.90;999.90;;;16.40;99.90;;;;;;5037240;28;20071;-74
2023/09/22 02:17:43;;;;;;;1999.90;999.90;;;16.40;99.90;;;;;;5054377;28;20500;-74
2023/09/22 02:22:45;;;;;;;1999.90;999.90;;;16.40;99.90;;;;;;5034293;28;20029;-74
2023/09/22 02:25:12;;;;;;;1999.90;999.90;;;16.40;99.90;;;;;;5033834;28;20049;-76
2023/09/22 02:27:37;;;;;;;1999.90;999.90;;;16.30;99.90;;;;;;5032717;28;20119;-74
2023/09/22 02:30:03;;;;;;;1999.90;999.90;;;16.20;99.90;;;;;;5034537;28;20060;-75
2023/09/22 02:32:29;;;;;;;1999.90;999.90;;;16.20;99.90;;;;;;5033859;28;20510;-74
2023/09/22 02:34:56;;;;;;;1999.90;999.90;;;16.30;99.90;;;;;;5033996;28;20025;-76
2023/09/22 02:37:22;;;;;;;1999.90;999.90;;;16.30;99.90;;;;;;5033841;28;20109;-76
2023/09/22 02:39:47;;;;;;;1999.90;999.90;;;16.30;99.90;;;;;;5032818;28;20025;-74
2023/09/22 02:42:14;;;;;;;1999.90;999.90;;;16.30;99.90;;;;;;5034067;28;20053;-73
2023/09/22 02:44:39;;;;;;;1999.90;999.90;;;16.50;99.90;;;;;;5033743;28;20019;-73
2023/09/22 02:47:05;;;;;;;1999.90;999.90;;;16.50;99.90;;;;;;5032495;28;20041;-73
2023/09/22 02:49:31;;;;;;;1999.90;999.90;;;16.50;99.90;;;;;;5033046;28;20025;-76
2023/09/22 02:51:57;;;;;;;1999.90;999.90;;;16.50;99.90;;;;;;5050280;28;20088;-75
2023/09/22 02:54:23;;;;;;;1999.90;999.90;;;16.40;99.90;;;;;;5053689;28;20029;-74
2023/09/22 02:56:49;;;;;;;1999.90;999.90;;;16.50;99.90;;;;;;5053404;28;20446;-74
2023/09/22 02:59:15;;;;;;;1999.90;999.90;;;16.50;99.90;;;;;;5053346;28;20590;-76
2023/09/22 03:01:41;;;;;;;1999.90;999.90;;;16.50;99.90;;;;;;5053598;28;20031;-76
2023/09/22 03:04:09;;;;;;;1999.90;999.90;;;16.60;99.90;;;;;;5051871;28;20396;-75
2023/09/22 03:06:35;;;;;;;1999.90;999.90;;;16.70;99.90;;;;;;5053398;28;20416;-73
2023/09/22 03:09:01;;;;;;;1999.90;999.90;;;16.70;99.90;;;;;;5053287;28;20021;-76
2023/09/22 03:11:26;;;;;;;1999.90;999.90;;;16.80;99.90;;;;;;5053218;28;20440;-75
2023/09/22 03:13:52;;;;;;;1999.90;999.90;;;16.90;99.90;;;;;;5053059;28;20025;-75
2023/09/22 03:16:18;;;;;;;1999.90;999.90;;;17.00;99.90;;;;;;5053621;28;20025;-73
2023/09/22 03:18:44;;;;;;;1999.90;999.90;;;17.00;99.90;;;;;;5049361;28;20016;-74
2023/09/22 03:21:10;;;;;;;1999.90;999.90;;;17.00;99.90;;;;;;5041356;28;20025;-74
2023/09/22 03:23:36;;;;;;;1999.90;999.90;;;17.10;99.90;;;;;;5031891;28;20095;-75
2023/09/22 03:26:04;;;;;;;1999.90;999.90;;;17.10;99.90;;;;;;5032682;28;20092;-74
2023/09/22 03:28:30;;;;;;;1999.90;999.90;;;17.10;99.90;;;;;;5033040;28;20037;-74
2023/09/22 03:30:58;;;;;;;1999.90;999.90;;;17.20;99.90;;;;;;5033186;28;20033;-75
2023/09/22 03:33:24;;;;;;;1999.90;999.90;;;17.20;99.90;;;;;;5033092;28;20029;-74
2023/09/22 03:35:50;;;;;;;1999.90;999.90;;;17.20;99.90;;;;;;5032939;28;20107;-71
2023/09/22 03:38:15;;;;;;;1999.90;999.90;;;16.40;99.90;;;;;;5043060;28;20476;-76
2023/09/22 03:40:41;;;;;;;1999.90;999.90;;;15.60;99.90;;;;;;5052783;28;20025;-74
2023/09/22 03:43:11;;;;;;;1999.90;999.90;;;15.40;99.90;;;;;;5052543;28;20488;-75
2023/09/22 03:45:37;;;;;;;1999.90;999.90;;;15.30;99.90;;;;;;5052926;28;20032;-75
2023/09/22 03:48:03;;;;;;;1999.90;999.90;;;15.50;99.90;;;;;;5051417;28;20419;-72
2023/09/22 03:50:29;;;;;;;1999.90;999.90;;;15.50;99.90;;;;;;5052404;28;20021;-75
2023/09/22 03:52:55;;;;;;;1999.90;999.90;;;15.40;99.90;;;;;;5052646;28;20487;-74
2023/09/22 03:55:21;;;;;;;1999.90;999.90;;;15.20;99.90;;;;;;5052899;28;20383;-75
2023/09/22 03:57:46;;;;;;;1999.90;999.90;;;15.20;99.90;;;;;;5052621;28;20039;-71
2023/09/22 04:00:18;;;;;;;1999.90;999.90;;;15.30;99.90;;;;;;5052425;28;20025;-71
2023/09/22 04:02:47;;;;;;;1999.90;999.90;;;15.60;99.90;;;;;;5051650;28;20491;-71
2023/09/22 04:05:13;;;;;;;1999.90;999.90;;;15.90;99.90;;;;;;5052179;28;20083;-75
2023/09/22 04:07:39;;;;;;;1999.90;999.90;;;16.10;99.90;;;;;;5052647;28;20013;-75
2023/09/22 04:10:07;;;;;;;1999.90;999.90;;;16.30;99.90;;;;;;5052110;28;20029;-71
2023/09/22 04:12:35;;;;;;;1999.90;999.90;;;15.90;99.90;;;;;;5052468;28;20025;-71
2023/09/22 04:15:05;;;;;;;1999.90;999.90;;;15.30;99.90;;;;;;5052744;28;20033;-74
2023/09/22 04:17:32;;;;;;;1999.90;999.90;;;14.80;99.90;;;;;;5052398;28;20036;-74
2023/09/22 04:19:58;;;;;;;1999.90;999.90;;;14.70;99.90;;;;;;5044466;28;20029;-74
2023/09/22 04:22:24;;;;;;;1999.90;999.90;;;14.70;99.90;;;;;;5035293;28;20029;-74
2023/09/22 04:24:51;;;;;;;1999.90;999.90;;;14.70;99.90;;;;;;5036882;28;20048;-70
2023/09/22 04:27:16;;;;;;;1999.90;999.90;;;14.70;99.90;;;;;;5052609;28;20041;-70
2023/09/22 04:29:42;;;;;;;1999.90;999.90;;;14.70;99.90;;;;;;5052151;28;20068;-74
2023/09/22 04:32:08;;;;;;;1999.90;999.90;;;14.70;99.90;;;;;;5052464;28;20103;-75
2023/09/22 04:34:34;;;;;;;1999.90;999.90;;;14.70;99.90;;;;;;5056440;28;20029;-75
2023/09/22 04:37:04;;;;;;;1999.90;999.90;;;14.60;99.90;;;;;;5056250;28;20349;-71
2023/09/22 04:39:31;;;;;;;1999.90;999.90;;;14.60;99.90;;;;;;5056364;28;20029;-71
2023/09/22 04:41:58;;;;;;;1999.90;999.90;;;14.60;99.90;;;;;;5056293;28;20027;-75
2023/09/22 04:44:24;;;;;;;1999.90;999.90;;;14.60;99.90;;;;;;5047974;28;20089;-71
2023/09/22 04:46:49;;;;;;;1999.90;999.90;;;14.70;99.90;;;;;;5037985;28;20097;-71
2023/09/22 04:49:15;;;;;;;1999.90;999.90;;;14.80;99.90;;;;;;5035764;28;20032;-75
2023/09/22 04:51:41;;;;;;;1999.90;999.90;;;14.90;99.90;;;;;;5047000;28;20082;-71
2023/09/22 04:54:07;;;;;;;1999.90;999.90;;;14.90;99.90;;;;;;5055740;28;20484;-75
2023/09/22 04:56:33;;;;;;;1999.90;999.90;;;15.10;99.90;;;;;;5053467;28;20040;-75
2023/09/22 04:59:00;;;;;;;1999.90;999.90;;;15.20;99.90;;;;;;5055553;28;20025;-76
2023/09/22 05:01:26;;;;;;;1999.90;999.90;;;15.10;99.90;;;;;;5055474;28;20017;-76
2023/09/22 05:03:51;;;;;;;1999.90;999.90;;;15.20;99.90;;;;;;5055231;28;20432;-71
2023/09/22 05:06:17;;;;;;;1999.90;999.90;;;15.20;99.90;;;;;;5055295;28;20028;-71
2023/09/22 05:08:43;;;;;;;1999.90;999.90;;;15.20;99.90;;;;;;5055288;28;20112;-75
2023/09/22 05:11:09;;;;;;;1999.90;999.90;;;15.20;99.90;;;;;;5055306;28;20017;-71
2023/09/22 05:13:35;;;;;;;1999.90;999.90;;;15.10;99.90;;;;;;5055179;28;20102;-76
2023/09/22 05:16:12;;;;;;;1999.90;999.90;;;15.10;99.90;;;;;;5055322;28;20453;-71
2023/09/22 05:18:38;;;;;;;1999.90;999.90;;;15.10;99.90;;;;;;5051621;28;20091;-72
2023/09/22 05:21:04;;;;;;;1999.90;999.90;;;15.00;99.90;;;;;;5044969;28;20477;-72
2023/09/22 05:23:32;;;;;;;1999.90;999.90;;;15.00;99.90;;;;;;5038716;28;20071;-76
2023/09/22 05:25:58;;;;;;;1999.90;999.90;;;14.80;99.90;;;;;;5043692;28;20064;-76
2023/09/22 05:28:23;;;;;;;1999.90;999.90;;;14.60;99.90;;;;;;5035169;28;20021;-76
2023/09/22 05:30:49;;;;;;;1999.90;999.90;;;14.40;99.90;;;;;;5041619;28;20163;-71
2023/09/22 05:33:15;;;;;;;1999.90;999.90;;;14.30;99.90;;;;;;5045711;28;20051;-72
2023/09/22 05:35:41;;;;;;;1999.90;999.90;;;14.30;99.90;;;;;;5054705;28;20449;-71
2023/09/22 05:38:09;;;;;;;1999.90;999.90;;;14.20;99.90;;;;;;5047441;28;20104;-76
2023/09/22 05:40:35;;;;;;;1999.90;999.90;;;14.10;99.90;;;;;;5050159;28;20391;-76
2023/09/22 05:43:10;;;;;;;1999.90;999.90;;;14.00;99.90;;;;;;5046770;28;20016;-72
2023/09/22 05:45:36;;;;;;;1999.90;999.90;;;13.90;99.90;;;;;;5038896;28;20408;-72
2023/09/22 05:48:02;;;;;;;1999.90;999.90;;;13.90;99.90;;;;;;5054385;28;20032;-76
2023/09/22 05:50:28;;;;;;;1999.90;999.90;;;13.80;99.90;;;;;;5053072;28;20017;-76
2023/09/22 05:52:53;;;;;;;1999.90;999.90;;;13.80;99.90;;;;;;5054493;28;20032;-76
2023/09/22 05:55:20;;;;;;;1999.90;999.90;;;13.70;99.90;;;;;;5050595;28;20036;-73
2023/09/22 05:57:50;;;;;;;1999.90;999.90;;;13.70;99.90;;;;;;5046223;28;20025;-73
2023/09/22 06:00:16;;;;;;;1999.90;999.90;;;13.60;99.90;;;;;;5051518;28;20466;-72
2023/09/22 06:02:50;;;;;;;1999.90;999.90;;;13.60;99.90;;;;;;5053446;28;20104;-76
2023/09/22 06:05:17;;;;;;;1999.90;999.90;;;13.60;99.90;;;;;;5049029;28;20021;-75
2023/09/22 06:07:43;;;;;;;1999.90;999.90;;;13.50;99.90;;;;;;5044687;28;20033;-72
2023/09/22 06:10:09;;;;;;;1999.90;999.90;;;13.50;99.90;;;;;;5051664;28;20033;-72
2023/09/22 06:12:39;;;;;;;1999.90;999.90;;;13.50;99.90;;;;;;5049964;28;20037;-76
2023/09/22 06:15:08;;;;;;;1999.90;999.90;;;13.50;99.90;;;;;;5052339;28;20040;-76
2023/09/22 06:17:38;;;;;;;1999.90;999.90;;;13.50;99.90;;;;;;5052787;28;20049;-76
2023/09/22 06:20:15;;;;;;;1999.90;999.90;;;13.50;99.90;;;;;;5043833;28;20026;-73
2023/09/22 06:22:45;;;;;;;1999.90;999.90;;;13.40;99.90;;;;;;5047641;28;20094;-73
2023/09/22 06:25:11;;;;;;;1999.90;999.90;;;13.40;99.90;;;;;;5046835;28;20041;-75
2023/09/22 06:27:36;;;;;;;1999.90;999.90;;;13.40;99.90;;;;;;5049223;28;20028;-76
2023/09/22 06:30:10;;;;;;;1999.90;999.90;;;13.50;99.90;;;;;;5051189;28;20391;-73
2023/09/22 06:32:44;;;;;;;1999.90;999.90;;;13.50;99.90;;;;;;5052127;28;20029;-76
2023/09/22 06:35:10;;;;;;;1999.90;999.90;;;13.60;99.90;;;;;;5050436;28;20036;-73
2023/09/22 06:37:41;;;;;;;1999.90;999.90;;;13.60;99.90;;;;;;5048186;28;20361;-73
2023/09/22 06:40:15;;;;;;;1999.90;999.90;;;13.60;99.90;;;;;;5049628;28;20016;-76
2023/09/22 06:42:42;;;;;;;1999.90;999.90;;;13.60;99.90;;;;;;5041963;28;20039;-76
2023/09/22 06:45:11;;;;;;;1999.90;999.90;;;13.70;99.90;;;;;;5048828;28;20504;-75
2023/09/22 06:47:43;;;;;;;1999.90;999.90;;;13.70;99.90;;;;;;5049874;28;20040;-73
2023/09/22 06:50:11;;;;;;;1999.90;999.90;;;13.80;99.90;;;;;;5049460;28;20017;-73
2023/09/22 06:52:37;;;;;;;1999.90;999.90;;;13.80;99.90;;;;;;5046757;28;20071;-76
2023/09/22 06:55:08;;;;;;;1999.90;999.90;;;13.90;99.90;;;;;;5041165;28;20025;-76
2023/09/22 06:57:36;;;;;;;1999.90;999.90;;;13.90;99.90;;;;;;5058488;28;20492;-76
2023/09/22 07:00:05;;;;;;;1999.90;999.90;;;13.90;99.90;;;;;;5053245;28;20100;-74
2023/09/22 07:02:31;;;;;;;1999.90;999.90;;;13.90;99.90;;;;;;5053333;28;20496;-73
2023/09/22 07:04:57;;;;;;;1999.90;999.90;;;13.90;99.90;;;;;;5058765;28;20036;-76
2023/09/22 07:07:23;;;;;;;1999.90;999.90;;;13.90;99.90;;;;;;5051718;28;20078;-73
2023/09/22 07:09:49;;;;;;;1999.90;999.90;;;13.90;99.90;;;;;;5052432;28;20446;-76
2023/09/22 07:12:14;;;;;;;1999.90;999.90;;;13.90;99.90;;;;;;5053559;28;20054;-73
2023/09/22 07:14:40;;;;;;;1999.90;999.90;;;13.80;99.90;;;;;;5052419;28;20116;-73
2023/09/22 07:17:05;;;;;;;1999.90;999.90;;;13.90;99.90;;;;;;5062958;28;20504;-73
2023/09/22 07:19:32;;;;;;;1999.90;999.90;;;14.00;99.90;;;;;;5070673;28;20086;-76
2023/09/22 07:21:58;;;;;;;1999.90;999.90;;;14.10;99.90;;;;;;5052710;28;20025;-73
2023/09/22 07:24:23;;;;;;;1999.90;999.90;;;14.20;99.90;;;;;;5050558;28;20455;-76
2023/09/22 07:26:50;;;;;;;1999.90;999.90;;;14.40;99.90;;;;;;5050290;28;20083;-73
2023/09/22 07:29:17;;;;;;;1999.90;999.90;;;14.70;99.90;;;;;;5050437;28;20029;-73
2023/09/22 07:31:44;;;;;;;1999.90;999.90;;;15.90;99.90;;;;;;5048991;28;20063;-74
2023/09/22 07:34:10;;;;;;;1999.90;999.90;;;16.20;99.90;;;;;;5051662;28;20116;-73
2023/09/22 07:36:36;;;;;;;1999.90;999.90;;;15.80;99.90;;;;;;5049681;28;20120;-77
2023/09/22 07:39:02;;;;;;;1999.90;999.90;;;15.60;99.90;;;;;;5051242;28;20549;-73
2023/09/22 07:41:27;;;;;;;1999.90;999.90;;;15.50;99.90;;;;;;5051039;28;20036;-74
2023/09/22 07:43:53;;;;;;;1999.90;999.90;;;15.60;99.90;;;;;;5051553;28;20029;-77
2023/09/22 07:46:18;;;;;;;1999.90;999.90;;;15.70;99.90;;;;;;5051102;28;20075;-76
2023/09/22 07:48:45;;;;;;;1999.90;999.90;;;15.80;99.90;;;;;;5050709;28;20388;-74
2023/09/22 07:51:11;;;;;;;1999.90;999.90;;;16.00;99.90;;;;;;5048135;28;20021;-77
2023/09/22 07:53:37;;;;;;;1999.90;999.90;;;16.20;99.90;;;;;;5047290;28;20060;-74
2023/09/22 07:56:03;;;;;;;1999.90;999.90;;;17.30;99.90;;;;;;5051475;28;20072;-74
2023/09/22 07:58:29;;;;;;;1999.90;999.90;;;19.30;99.90;;;;;;5050592;28;20056;-74
2023/09/22 08:00:55;;;;;;;1999.90;999.90;;;22.40;99.90;;;;;;5036407;28;20029;-77
2023/09/22 08:03:21;;;;;;;1999.90;999.90;;;23.80;99.90;;;;;;5034358;28;20037;-74
2023/09/22 08:05:49;;;;;;;1999.90;999.90;;;22.60;99.90;;;;;;5040290;28;20025;-74
2023/09/22 08:08:15;;;;;;;1999.90;999.90;;;20.90;99.90;;;;;;5053127;28;20053;-75
2023/09/22 08:10:41;;;;;;;1999.90;999.90;;;19.80;99.90;;;;;;5050611;28;20438;-77
2023/09/22 08:13:07;;;;;;;1999.90;999.90;;;18.60;99.90;;;;;;5053414;28;20503;-76
2023/09/22 08:15:34;;;;;;;1999.90;999.90;;;19.00;99.90;;;;;;5049502;28;20415;-77
2023/09/22 08:18:02;;;;;;;1999.90;999.90;;;18.80;99.90;;;;;;5055179;28;20025;-74
2023/09/22 08:20:28;;;;;;;1999.90;999.90;;;18.20;99.90;;;;;;5053039;28;20525;-74
2023/09/22 08:22:54;;;;;;;1999.90;999.90;;;18.00;99.90;;;;;;5053987;28;20021;-74
2023/09/22 08:25:20;;;;;;;1999.90;999.90;;;18.10;99.90;;;;;;5048901;28;20041;-76
2023/09/22 08:27:48;;;;;;;1999.90;999.90;;;17.90;99.90;;;;;;5049772;28;20116;-76
2023/09/22 08:30:13;;;;;;;1999.90;999.90;;;17.70;99.90;;;;;;5047357;28;20025;-76
2023/09/22 08:32:41;;;;;;;1999.90;999.90;;;17.30;99.90;;;;;;5046359;28;20025;-74
2023/09/22 08:35:08;;;;;;;1999.90;999.90;;;17.80;99.90;;;;;;5054708;28;20474;-74
2023/09/22 08:37:37;;;;;;;1999.90;999.90;;;19.60;99.90;;;;;;5054507;28;20104;-76
2023/09/22 08:40:08;;;;;;;1999.90;999.90;;;23.10;99.90;;;;;;5053250;28;20035;-76
2023/09/22 08:42:35;;;;;;;1999.90;999.90;;;25.20;99.90;;;;;;5052362;28;20023;-76
2023/09/22 08:45:00;;;;;;;1999.90;999.90;;;23.80;99.90;;;;;;5052012;28;20125;-74
2023/09/22 08:47:26;;;;;;;1999.90;999.90;;;23.90;99.90;;;;;;5050434;28;20116;-74
2023/09/22 08:49:52;;;;;;;1999.90;999.90;;;24.80;99.90;;;;;;5053651;28;20508;-77
2023/09/22 08:52:20;;;;;;;1999.90;999.90;;;25.80;99.90;;;;;;5052945;28;20535;-77
2023/09/22 08:54:46;;;;;;;1999.90;999.90;;;27.00;99.90;;;;;;5054360;28;20055;-77
2023/09/22 08:57:14;;;;;;;1999.90;999.90;;;27.40;99.90;;;;;;5053094;28;20540;-72
2023/09/22 08:59:41;;;;;;;1999.90;999.90;;;26.80;99.90;;;;;;5050126;28;20689;-74
2023/09/22 09:02:09;;;;;;;1999.90;999.90;;;23.30;99.90;;;;;;5051186;28;20025;-76
2023/09/22 09:04:40;;;;;;;1999.90;999.90;;;20.90;99.90;;;;;;5041874;28;20033;-76
2023/09/22 09:07:08;;;;;;;1999.90;999.90;;;19.80;99.90;;;;;;5049033;28;20025;-76
2023/09/22 09:09:44;;;;;;;1999.90;999.90;;;19.10;99.90;;;;;;5053938;28;20036;-75
2023/09/22 09:12:11;;;;;;;1999.90;999.90;;;18.40;99.90;;;;;;5050436;28;20096;-73
2023/09/22 09:14:42;;;;;;;1999.90;999.90;;;17.90;99.90;;;;;;5053065;28;20539;-75
2023/09/22 09:17:23;;;;;;;1999.90;999.90;;;17.90;99.90;;;;;;5045365;28;20029;-75
2023/09/22 09:19:54;;;;;;;1999.90;999.90;;;18.60;99.90;;;;;;5067077;28;20035;-75
2023/09/22 09:22:19;;;;;;;1999.90;999.90;;;18.60;99.90;;;;;;5051523;28;20021;-73
2023/09/22 09:24:45;;;;;;;1999.90;999.90;;;17.90;99.90;;;;;;5048521;28;20067;-73
2023/09/22 09:27:18;;;;;;;1999.90;999.90;;;17.70;99.90;;;;;;5052249;28;20029;-75
2023/09/22 09:29:50;;;;;;;1999.90;999.90;;;17.80;99.90;;;;;;5052661;28;20039;-75
2023/09/22 09:32:26;;;;;;;1999.90;999.90;;;18.00;99.90;;;;;;5051376;28;20052;-75
2023/09/22 09:34:52;;;;;;;1999.90;999.90;;;18.10;99.90;;;;;;5048747;28;20075;-75
2023/09/22 09:37:19;;;;;;;1999.90;999.90;;;18.70;99.90;;;;;;5051709;28;20028;-73
2023/09/22 09:39:58;;;;;;;1999.90;999.90;;;19.30;99.90;;;;;;5053011;28;20040;-74
2023/09/22 09:42:26;;;;;;;1999.90;999.90;;;19.30;99.90;;;;;;5052622;28;20032;-74
2023/09/22 09:44:54;;;;;;;1999.90;999.90;;;19.70;99.90;;;;;;5051837;28;20021;-74
2023/09/22 09:47:25;;;;;;;1999.90;999.90;;;20.30;99.90;;;;;;5047905;28;20028;-76
2023/09/22 09:49:53;;;;;;;1999.90;999.90;;;20.50;99.90;;;;;;5051738;28;20025;-74
2023/09/22 09:52:35;;;;;;;1999.90;999.90;;;20.30;99.90;;;;;;5052211;28;20036;-75
2023/09/22 09:55:07;;;;;;;1999.90;999.90;;;19.30;99.90;;;;;;5045634;28;20033;-74
2023/09/22 09:57:39;;;;;;;1999.90;999.90;;;19.20;99.90;;;;;;5051938;28;20024;-73
2023/09/22 10:00:14;;;;;;;1999.90;999.90;;;19.00;99.90;;;;;;5051976;28;20033;-74
2023/09/22 10:02:44;;;;;;;1999.90;999.90;;;18.60;99.90;;;;;;5052119;28;20021;-74
2023/09/22 10:05:14;;;;;;;1999.90;999.90;;;18.40;99.90;;;;;;5050905;28;20033;-74
2023/09/22 10:07:43;;;;;;;1999.90;999.90;;;18.50;99.90;;;;;;5052580;28;20028;-74
2023/09/22 10:10:11;;;;;;;1999.90;999.90;;;18.80;99.90;;;;;;5048483;28;20039;-76
2023/09/22 10:12:37;;;;;;;1999.90;999.90;;;19.50;99.90;;;;;;5050670;28;20484;-76
2023/09/22 10:15:05;;;;;;;1999.90;999.90;;;19.60;99.90;;;;;;5044893;28;20510;-74
2023/09/22 10:17:31;;;;;;;1999.90;999.90;;;19.30;99.90;;;;;;5052794;28;20066;-74
2023/09/22 10:20:11;;;;;;;1999.90;999.90;;;19.50;99.90;;;;;;5053238;28;20277;-75
2023/09/22 10:22:41;;;;;;;1999.90;999.90;;;19.50;99.90;;;;;;5052973;28;20021;-76
2023/09/22 10:25:12;;;;;;;1999.90;999.90;;;19.40;99.90;;;;;;5050617;28;20052;-76
2023/09/22 10:27:57;;;;;;;1999.90;999.90;;;19.10;99.90;;;;;;5048888;28;20037;-74
2023/09/22 10:30:42;;;;;;;1999.90;999.90;;;18.90;99.90;;;;;;5038463;28;20037;-76
2023/09/22 10:33:22;;;;;;;1999.90;999.90;;;19.10;99.90;;;;;;5050762;28;20068;-76
2023/09/22 10:35:49;;;;;;;1999.90;999.90;;;19.50;99.90;;;;;;5053056;28;20115;-76
2023/09/22 10:38:15;;;;;;;1999.90;999.90;;;18.80;99.90;;;;;;5051897;28;20017;-76
2023/09/22 10:41:02;;;;;;;1999.90;999.90;;;18.90;99.90;;;;;;5051748;28;20103;-76
2023/09/22 10:43:29;;;;;;;1999.90;999.90;;;18.90;99.90;;;;;;5050277;28;20495;-74
2023/09/22 10:45:55;;;;;;;1999.90;999.90;;;18.90;99.90;;;;;;5052148;28;20029;-76
2023/09/22 10:48:21;;;;;;;1999.90;999.90;;;19.00;99.90;;;;;;5051793;28;20052;-76
2023/09/22 10:50:51;;;;;;;1999.90;999.90;;;19.00;99.90;;;;;;5051723;28;20504;-76
2023/09/22 10:53:17;;;;;;;1999.90;999.90;;;19.20;99.90;;;;;;5052541;28;20059;-76
2023/09/22 10:55:46;;;;;;;1999.90;999.90;;;19.50;99.90;;;;;;5059708;28;21272;-74
2023/09/22 10:58:16;;;;;;;1999.90;999.90;;;19.60;99.90;;;;;;5053316;28;20399;-75
2023/09/22 11:01:06;;;;;;;1999.90;999.90;;;19.70;99.90;;;;;;5053810;28;20029;-76
2023/09/22 11:03:35;;;;;;;1999.90;999.90;;;19.90;99.90;;;;;;5066009;28;20013;-76
2023/09/22 11:06:10;;;;;;;1999.90;999.90;;;20.00;99.90;;;;;;5051042;28;20070;-76
2023/09/22 11:08:52;;;;;;;1999.90;999.90;;;19.60;99.90;;;;;;5049985;28;20044;-76
2023/09/22 11:11:19;;;;;;;1999.90;999.90;;;19.50;99.90;;;;;;5051998;28;20487;-76
2023/09/22 11:13:55;;;;;;;1999.90;999.90;;;19.40;99.90;;;;;;5059003;28;20039;-76
2023/09/22 11:16:22;;;;;;;1999.90;999.90;;;19.10;99.90;;;;;;5060539;28;20119;-76
2023/09/22 11:18:51;;;;;;;1999.90;999.90;;;19.10;99.90;;;;;;5051174;28;20044;-76
2023/09/22 11:21:16;;;;;;;1999.90;999.90;;;19.30;99.90;;;;;;5051823;28;20025;-74
2023/09/22 11:23:42;;;;;;;1999.90;999.90;;;19.50;99.90;;;;;;5052943;28;20039;-74
2023/09/22 11:26:12;;;;;;;1999.90;999.90;;;19.70;99.90;;;;;;5048347;28;20037;-76
2023/09/22 11:28:44;;;;;;;1999.90;999.90;;;19.30;99.90;;;;;;5051539;28;20044;-76
2023/09/22 11:31:13;;;;;;;1999.90;999.90;;;19.10;99.90;;;;;;5050812;28;20408;-75
2023/09/22 11:33:40;;;;;;;1999.90;999.90;;;19.40;99.90;;;;;;5051979;28;20033;-74
2023/09/22 11:36:07;;;;;;;1999.90;999.90;;;19.70;99.90;;;;;;5052099;28;20483;-74
2023/09/22 11:38:34;;;;;;;1999.90;999.90;;;19.40;99.90;;;;;;5051256;28;20399;-75
2023/09/22 11:41:04;;;;;;;1999.90;999.90;;;19.40;99.90;;;;;;5051344;28;20458;-76
2023/09/22 11:43:30;;;;;;;1999.90;999.90;;;19.30;99.90;;;;;;5051916;28;20024;-76
2023/09/22 11:46:09;;;;;;;1999.90;999.90;;;19.50;99.90;;;;;;5051734;28;20028;-74
2023/09/22 11:49:05;;;;;;;1999.90;999.90;;;19.70;99.90;;;;;;5049941;28;20387;-76
2023/09/22 11:51:58;;;;;;;1999.90;999.90;;;20.10;99.90;;;;;;5051103;28;20092;-76
2023/09/22 11:54:25;;;;;;;1999.90;999.90;;;20.30;99.90;;;;;;5051083;28;20090;-77
2023/09/22 11:56:59;;;;;;;1999.90;999.90;;;20.10;99.90;;;;;;5051304;28;20507;-76
2023/09/22 11:59:31;;;;;;;1999.90;999.90;;;20.00;99.90;;;;;;5051428;28;20017;-74
2023/09/22 12:01:57;;;;;;;1999.90;999.90;;;19.60;99.90;;;;;;5049172;28;20025;-76
2023/09/22 12:04:23;;;;;;;1999.90;999.90;;;19.50;99.90;;;;;;5051424;28;20373;-76